createdAt,value
2018-06-27T00:01:10.670Z,27.80
2018-06-27T00:03:38.914Z,33.30
2018-06-27T00:06:06.982Z,23.10
2018-06-27T00:08:34.945Z,33.90
2018-06-27T00:11:03.246Z,31.13
2018-06-27T00:13:31.523Z,30.97
2018-06-27T00:15:59.829Z,32.57
2018-06-27T00:18:28.134Z,26.03
2018-06-27T00:20:56.382Z,26.93
2018-06-27T00:23:24.673Z,30.00
2018-06-27T00:25:52.953Z,34.70
2018-06-27T00:28:21.400Z,34.83
2018-06-27T00:30:49.664Z,30.90
2018-06-27T00:33:17.955Z,34.60
2018-06-27T00:35:46.234Z,33.07
2018-06-27T00:38:16.470Z,28.20
2018-06-27T00:40:45.027Z,33.47
2018-06-27T00:43:13.714Z,38.57
2018-06-27T00:45:42.018Z,33.27
2018-06-27T00:48:10.481Z,34.33
2018-06-27T00:50:39.375Z,39.17
2018-06-27T00:53:07.632Z,30.90
2018-06-27T00:55:36.527Z,31.77
2018-06-27T00:58:05.133Z,26.17
2018-06-27T01:00:33.426Z,30.90
2018-06-27T01:03:01.702Z,30.43
2018-06-27T01:05:30.146Z,34.10
2018-06-27T01:07:58.447Z,30.17
2018-06-27T01:10:26.750Z,32.63
2018-06-27T01:12:55.009Z,34.20
2018-06-27T01:15:23.368Z,29.27
2018-06-27T01:17:52.565Z,30.87
2018-06-27T01:20:20.868Z,36.77
2018-06-27T01:22:49.616Z,38.83
2018-06-27T01:25:17.961Z,33.23
2018-06-27T01:27:46.693Z,41.13
2018-06-27T01:30:14.958Z,31.90
2018-06-27T01:32:43.219Z,35.77
2018-06-27T01:35:11.498Z,32.37
2018-06-27T01:37:39.802Z,31.63
2018-06-27T01:40:08.126Z,32.30
2018-06-27T01:42:36.528Z,34.10
2018-06-27T01:45:04.842Z,36.00
2018-06-27T01:47:33.130Z,37.10
2018-06-27T01:50:01.416Z,33.03
2018-06-27T01:52:29.754Z,35.43
2018-06-27T01:54:58.033Z,37.87
2018-06-27T01:57:26.323Z,42.47
2018-06-27T01:59:54.581Z,50.13
2018-06-27T02:02:22.881Z,42.00
2018-06-27T02:04:51.157Z,29.93
2018-06-27T02:07:19.468Z,34.93
2018-06-27T02:09:47.790Z,32.40
2018-06-27T02:12:16.090Z,39.57
2018-06-27T02:14:44.408Z,42.57
2018-06-27T02:17:12.686Z,36.07
2018-06-27T02:19:40.950Z,40.37
2018-06-27T02:22:09.364Z,40.73
2018-06-27T02:24:37.670Z,42.13
2018-06-27T02:27:06.133Z,37.53
2018-06-27T02:29:34.495Z,42.67
2018-06-27T02:32:02.828Z,40.27
2018-06-27T02:34:31.237Z,38.80
2018-06-27T02:36:59.577Z,43.60
2018-06-27T02:39:27.890Z,38.43
2018-06-27T02:41:56.266Z,39.30
2018-06-27T02:44:24.669Z,39.83
2018-06-27T02:46:53.027Z,38.97
2018-06-27T02:49:21.372Z,38.13
2018-06-27T02:51:49.701Z,36.97
2018-06-27T02:54:18.065Z,42.13
2018-06-27T02:56:46.409Z,39.60
2018-06-27T02:59:14.826Z,41.43
2018-06-27T03:01:43.189Z,47.80
2018-06-27T03:04:11.268Z,35.67
2018-06-27T03:06:39.602Z,38.40
2018-06-27T03:09:09.584Z,40.47
2018-06-27T03:11:37.978Z,44.40
2018-06-27T03:14:06.418Z,37.53
2018-06-27T03:16:34.992Z,40.23
2018-06-27T03:19:03.361Z,43.53
2018-06-27T03:21:31.725Z,35.13
2018-06-27T03:24:00.042Z,35.77
2018-06-27T03:26:28.417Z,39.63
2018-06-27T03:28:56.748Z,36.40
2018-06-27T03:31:25.150Z,33.57
2018-06-27T03:33:53.885Z,36.70
2018-06-27T03:36:22.980Z,38.77
2018-06-27T03:38:51.337Z,37.50
2018-06-27T03:41:19.721Z,37.43
2018-06-27T03:43:48.046Z,38.70
2018-06-27T03:46:16.364Z,39.10
2018-06-27T03:48:44.661Z,36.23
2018-06-27T03:51:12.981Z,37.10
2018-06-27T03:53:46.493Z,43.60
2018-06-27T03:56:14.809Z,39.47
2018-06-27T03:58:43.197Z,43.23
2018-06-27T04:01:11.525Z,39.23
2018-06-27T04:03:41.121Z,38.80
2018-06-27T04:06:10.577Z,37.30
2018-06-27T04:08:38.913Z,36.13
2018-06-27T04:11:07.277Z,41.87
2018-06-27T04:13:35.875Z,39.47
2018-06-27T04:16:04.220Z,35.17
2018-06-27T04:18:32.543Z,39.73
2018-06-27T04:21:00.931Z,39.13
2018-06-27T04:23:29.321Z,42.53
2018-06-27T04:25:57.706Z,36.33
2018-06-27T04:28:26.048Z,35.90
2018-06-27T04:30:54.429Z,38.50
2018-06-27T04:33:22.496Z,39.70
2018-06-27T04:35:51.202Z,40.03
2018-06-27T04:38:19.753Z,40.83
2018-06-27T04:40:48.672Z,45.47
2018-06-27T04:43:17.941Z,41.13
2018-06-27T04:45:46.245Z,42.27
2018-06-27T04:48:14.560Z,37.33
2018-06-27T04:50:42.905Z,38.07
2018-06-27T04:53:11.225Z,41.53
2018-06-27T04:55:39.606Z,35.47
2018-06-27T04:58:07.914Z,34.23
2018-06-27T05:00:36.257Z,41.80
2018-06-27T05:03:04.569Z,41.67
2018-06-27T05:05:32.934Z,41.87
2018-06-27T05:08:01.273Z,42.90
2018-06-27T05:10:29.649Z,40.53
2018-06-27T05:12:57.974Z,36.30
2018-06-27T05:15:26.286Z,41.53
2018-06-27T05:17:54.629Z,35.93
2018-06-27T05:20:22.925Z,43.43
2018-06-27T05:22:51.268Z,41.50
2018-06-27T05:25:19.580Z,39.33
2018-06-27T05:27:47.889Z,44.63
2018-06-27T05:30:16.276Z,37.70
2018-06-27T05:32:44.579Z,40.57
2018-06-27T05:35:12.930Z,43.83
2018-06-27T05:37:41.315Z,42.23
2018-06-27T05:40:09.693Z,37.07
2018-06-27T05:42:38.090Z,43.37
2018-06-27T05:45:06.706Z,41.77
2018-06-27T05:47:35.025Z,38.77
2018-06-27T05:50:03.400Z,35.07
2018-06-27T05:52:31.686Z,39.70
2018-06-27T05:55:05.372Z,38.07
2018-06-27T05:57:33.655Z,34.70
2018-06-27T06:00:01.991Z,37.67
2018-06-27T06:02:30.421Z,37.10
2018-06-27T06:04:58.739Z,32.03
2018-06-27T06:07:27.248Z,31.03
2018-06-27T06:09:55.533Z,32.70
2018-06-27T06:12:23.923Z,28.57
2018-06-27T06:14:52.437Z,32.83
2018-06-27T06:17:21.017Z,35.77
2018-06-27T06:19:49.389Z,24.63
2018-06-27T06:22:17.742Z,33.10
2018-06-27T06:24:46.629Z,29.20
2018-06-27T06:27:15.671Z,21.00
2018-06-27T06:29:45.033Z,19.93
2018-06-27T06:32:13.955Z,18.97
2018-06-27T06:34:42.345Z,17.27
2018-06-27T06:37:11.517Z,15.03
2018-06-27T06:39:39.912Z,22.13
2018-06-27T06:42:08.293Z,19.07
2018-06-27T06:44:38.093Z,16.50
2018-06-27T06:47:06.459Z,16.23
2018-06-27T06:49:34.840Z,16.10
2018-06-27T06:52:03.239Z,21.07
2018-06-27T06:54:31.619Z,10.00
2018-06-27T06:56:59.998Z,13.20
2018-06-27T06:59:28.384Z,12.90
2018-06-27T07:01:56.689Z,9.73
2018-06-27T07:04:25.014Z,10.83
2018-06-27T07:06:53.669Z,8.37
2018-06-27T07:09:22.020Z,10.27
2018-06-27T07:11:50.340Z,9.30
2018-06-27T07:14:18.777Z,11.60
2018-06-27T07:16:47.294Z,6.93
2018-06-27T07:19:15.607Z,9.17
2018-06-27T07:21:44.112Z,7.43
2018-06-27T07:24:12.488Z,12.57
2018-06-27T07:26:40.855Z,8.53
2018-06-27T07:29:09.174Z,7.00
2018-06-27T07:31:37.558Z,9.50
2018-06-27T07:34:06.026Z,8.70
2018-06-27T07:36:36.479Z,8.53
2018-06-27T07:39:07.586Z,7.93
2018-06-27T07:41:35.953Z,4.90
2018-06-27T07:44:04.306Z,9.37
2018-06-27T07:46:32.682Z,175.00
2018-06-27T07:49:01.053Z,19.80
2018-06-27T07:51:29.405Z,28.50
2018-06-27T07:53:57.767Z,7.43
2018-06-27T07:56:26.142Z,6.97
2018-06-27T07:58:54.625Z,9.20
2018-06-27T08:01:23.022Z,5.23
2018-06-27T08:03:51.365Z,3.87
2018-06-27T08:06:19.725Z,6.33
2018-06-27T08:08:48.179Z,5.70
2018-06-27T08:11:16.619Z,9.37
2018-06-27T08:13:44.954Z,3.17
2018-06-27T08:16:13.525Z,3.10
2018-06-27T08:18:43.746Z,5.20
2018-06-27T08:21:12.110Z,5.73
2018-06-27T08:23:40.446Z,3.73
2018-06-27T08:26:08.945Z,7.33
2018-06-27T08:28:37.297Z,3.33
2018-06-27T08:31:05.766Z,5.10
2018-06-27T08:33:34.134Z,6.23
2018-06-27T08:36:02.466Z,3.43
2018-06-27T08:38:30.845Z,6.37
2018-06-27T08:40:59.336Z,7.43
2018-06-27T08:43:27.662Z,4.20
2018-06-27T08:45:56.029Z,4.10
2018-06-27T08:48:24.633Z,7.07
2018-06-27T08:50:52.990Z,4.57
2018-06-27T08:53:21.436Z,6.10
2018-06-27T08:55:49.936Z,3.13
2018-06-27T08:58:18.283Z,3.03
2018-06-27T09:00:46.598Z,3.43
2018-06-27T09:03:15.016Z,5.17
2018-06-27T09:05:45.896Z,4.17
2018-06-27T09:08:15.209Z,6.10
2018-06-27T09:10:49.457Z,3.80
2018-06-27T09:13:17.877Z,5.58
2018-06-27T09:15:46.182Z,3.22
2018-06-27T09:18:14.513Z,4.03
2018-06-27T09:20:42.913Z,2.50
2018-06-27T09:23:11.298Z,5.53
2018-06-27T09:25:39.707Z,3.35
2018-06-27T09:28:08.063Z,2.25
2018-06-27T09:30:36.885Z,2.12
2018-06-27T09:33:05.329Z,2.80
2018-06-27T09:35:34.185Z,4.92
2018-06-27T09:38:02.603Z,3.22
2018-06-27T09:40:30.919Z,1.82
2018-06-27T09:43:02.202Z,1.22
2018-06-27T09:45:30.641Z,1.15
2018-06-27T09:47:58.993Z,1.35
2018-06-27T09:50:27.403Z,3.35
2018-06-27T09:52:55.793Z,1.22
2018-06-27T09:55:24.162Z,1.10
2018-06-27T09:57:52.586Z,1.10
2018-06-27T10:00:26.212Z,2.62
2018-06-27T10:02:54.599Z,2.55
2018-06-27T10:05:22.987Z,1.98
2018-06-27T10:07:51.276Z,0.93
2018-06-27T10:10:19.599Z,2.92
2018-06-27T10:12:47.985Z,1.00
2018-06-27T10:15:16.322Z,4.20
2018-06-27T10:17:44.643Z,1.27
2018-06-27T10:20:12.988Z,1.27
2018-06-27T10:22:41.395Z,1.60
2018-06-27T10:25:09.631Z,4.80
2018-06-27T10:27:38.065Z,1.20
2018-06-27T10:30:06.462Z,0.90
2018-06-27T10:32:35.017Z,1.25
2018-06-27T10:35:03.418Z,1.37
2018-06-27T10:37:31.878Z,1.10
2018-06-27T10:40:00.210Z,1.10
2018-06-27T10:42:28.526Z,2.73
2018-06-27T10:44:56.845Z,4.27
2018-06-27T10:47:25.216Z,1.17
2018-06-27T10:49:53.282Z,1.57
2018-06-27T10:52:22.050Z,1.27
2018-06-27T10:54:54.493Z,2.40
2018-06-27T10:57:23.733Z,2.13
2018-06-27T10:59:53.145Z,4.05
2018-06-27T11:02:22.224Z,1.37
2018-06-27T11:04:50.666Z,1.47
2018-06-27T11:07:19.010Z,1.80
2018-06-27T11:09:47.373Z,3.02
2018-06-27T11:12:15.728Z,1.50
2018-06-27T11:14:44.156Z,2.45
2018-06-27T11:17:12.544Z,3.58
2018-06-27T11:19:40.914Z,1.65
2018-06-27T11:22:09.302Z,3.33
2018-06-27T11:24:37.633Z,3.75
2018-06-27T11:27:06.030Z,3.02
2018-06-27T11:29:34.342Z,1.82
2018-06-27T11:32:02.680Z,4.33
2018-06-27T11:34:31.013Z,2.35
2018-06-27T11:36:59.333Z,1.92
2018-06-27T11:39:28.109Z,1.55
2018-06-27T11:41:56.721Z,2.42
2018-06-27T11:44:25.092Z,1.45
2018-06-27T11:46:53.422Z,5.37
2018-06-27T11:49:21.793Z,1.72
2018-06-27T11:51:50.158Z,4.78
2018-06-27T11:54:18.516Z,1.50
2018-06-27T11:56:47.082Z,2.17
2018-06-27T11:59:15.096Z,4.05
2018-06-27T12:01:43.450Z,1.80
2018-06-27T12:04:11.934Z,2.33
2018-06-27T12:06:40.229Z,1.47
2018-06-27T12:09:09.900Z,2.52
2018-06-27T12:11:38.497Z,1.10
2018-06-27T12:14:07.028Z,1.20
2018-06-27T12:16:35.377Z,1.37
2018-06-27T12:19:03.706Z,1.20
2018-06-27T12:21:32.091Z,2.27
2018-06-27T12:24:00.401Z,1.37
2018-06-27T12:26:28.818Z,1.52
2018-06-27T12:28:57.169Z,1.22
2018-06-27T12:31:25.659Z,1.35
2018-06-27T12:33:54.009Z,1.17
2018-06-27T12:36:22.380Z,1.65
2018-06-27T12:38:50.789Z,1.62
2018-06-27T12:41:19.141Z,1.02
2018-06-27T12:43:47.497Z,1.72
2018-06-27T12:46:15.822Z,3.10
2018-06-27T12:48:44.201Z,0.90
2018-06-27T12:51:12.580Z,1.77
2018-06-27T12:53:41.747Z,1.15
2018-06-27T12:56:10.178Z,2.85
2018-06-27T12:58:38.612Z,2.17
2018-06-27T13:01:07.041Z,2.08
2018-06-27T13:03:35.397Z,1.20
2018-06-27T13:06:03.787Z,1.22
2018-06-27T13:08:32.157Z,1.12
2018-06-27T13:11:00.539Z,2.40
2018-06-27T13:13:28.878Z,6.22
2018-06-27T13:15:57.373Z,1.60
2018-06-27T13:18:25.681Z,1.10
2018-06-27T13:20:53.832Z,1.70
2018-06-27T13:23:22.165Z,3.50
2018-06-27T13:25:50.531Z,1.90
2018-06-27T13:28:18.845Z,2.92
2018-06-27T13:30:47.340Z,1.30
2018-06-27T13:33:15.649Z,1.40
2018-06-27T13:35:44.126Z,1.92
2018-06-27T13:38:12.439Z,1.52
2018-06-27T13:40:40.573Z,0.90
2018-06-27T13:43:08.958Z,1.00
2018-06-27T13:45:37.296Z,1.37
2018-06-27T13:48:06.069Z,0.95
2018-06-27T13:50:34.441Z,1.52
2018-06-27T13:53:02.953Z,1.12
2018-06-27T13:55:31.367Z,1.10
2018-06-27T13:57:59.739Z,2.33
2018-06-27T14:00:28.050Z,1.20
2018-06-27T14:02:56.404Z,1.98
2018-06-27T14:05:24.798Z,1.95
2018-06-27T14:07:53.096Z,1.30
2018-06-27T14:10:21.431Z,1.77
2018-06-27T14:12:49.756Z,2.50
2018-06-27T14:15:18.193Z,1.67
2018-06-27T14:17:46.583Z,1.98
2018-06-27T14:20:14.954Z,4.37
2018-06-27T14:22:43.265Z,3.55
2018-06-27T14:25:11.652Z,2.27
2018-06-27T14:27:43.028Z,2.05
2018-06-27T14:30:11.334Z,1.52
2018-06-27T14:32:39.694Z,3.15
2018-06-27T14:35:08.273Z,2.92
2018-06-27T14:37:36.627Z,1.60
2018-06-27T14:40:05.176Z,2.05
2018-06-27T14:42:33.467Z,2.80
2018-06-27T14:45:01.813Z,2.87
2018-06-27T14:47:30.129Z,3.67
2018-06-27T14:49:58.450Z,1.82
2018-06-27T14:52:27.157Z,1.32
2018-06-27T14:54:55.503Z,3.27
2018-06-27T14:57:24.118Z,2.00
2018-06-27T14:59:52.441Z,2.20
2018-06-27T15:02:20.785Z,3.90
2018-06-27T15:04:49.205Z,2.27
2018-06-27T15:07:17.538Z,3.77
2018-06-27T15:09:45.881Z,2.33
2018-06-27T15:12:14.303Z,5.45
2018-06-27T15:14:42.585Z,2.67
2018-06-27T15:17:10.890Z,4.08
2018-06-27T15:19:39.229Z,1.82
2018-06-27T15:22:07.615Z,3.55
2018-06-27T15:24:35.946Z,1.80
2018-06-27T15:27:04.350Z,4.37
2018-06-27T15:29:33.205Z,4.45
2018-06-27T15:32:01.538Z,2.85
2018-06-27T15:34:29.857Z,2.87
2018-06-27T15:36:58.182Z,6.50
2018-06-27T15:39:26.498Z,5.47
2018-06-27T15:41:54.870Z,2.20
2018-06-27T15:44:23.224Z,4.78
2018-06-27T15:46:51.585Z,4.73
2018-06-27T15:49:19.986Z,2.43
2018-06-27T15:51:48.394Z,3.83
2018-06-27T15:54:16.721Z,3.27
2018-06-27T15:56:45.247Z,2.97
2018-06-27T15:59:13.634Z,5.73
2018-06-27T16:01:42.072Z,3.50
2018-06-27T16:04:10.645Z,2.53
2018-06-27T16:06:39.001Z,2.80
2018-06-27T16:09:08.321Z,3.10
2018-06-27T16:11:37.246Z,3.93
2018-06-27T16:14:05.353Z,4.00
2018-06-27T16:16:33.769Z,4.70
2018-06-27T16:19:02.480Z,3.33
2018-06-27T16:21:30.870Z,3.67
2018-06-27T16:23:59.299Z,1.80
2018-06-27T16:26:27.609Z,3.57
2018-06-27T16:28:55.949Z,3.07
2018-06-27T16:31:24.522Z,2.43
2018-06-27T16:33:52.850Z,6.07
2018-06-27T16:36:22.654Z,4.10
2018-06-27T16:38:51.049Z,2.17
2018-06-27T16:41:19.518Z,5.30
2018-06-27T16:43:47.873Z,2.53
2018-06-27T16:46:16.275Z,4.07
2018-06-27T16:48:44.569Z,3.53
2018-06-27T16:51:13.031Z,2.60
2018-06-27T16:53:41.494Z,1.73
2018-06-27T16:56:12.700Z,3.20
2018-06-27T16:58:41.123Z,2.73
2018-06-27T17:01:09.555Z,4.00
2018-06-27T17:03:37.997Z,3.70
2018-06-27T17:06:06.404Z,2.00
2018-06-27T17:08:34.733Z,2.20
2018-06-27T17:11:03.109Z,2.80
2018-06-27T17:13:31.470Z,1.57
2018-06-27T17:15:59.856Z,5.17
2018-06-27T17:18:28.182Z,4.63
2018-06-27T17:20:56.526Z,3.67
2018-06-27T17:23:25.015Z,2.60
2018-06-27T17:25:53.373Z,2.70
2018-06-27T17:28:21.711Z,1.60
2018-06-27T17:30:50.156Z,3.20
2018-06-27T17:33:18.609Z,2.50
2018-06-27T17:35:46.993Z,1.90
2018-06-27T17:38:15.356Z,3.70
2018-06-27T17:40:43.681Z,1.60
2018-06-27T17:43:12.057Z,2.30
2018-06-27T17:45:40.421Z,2.00
2018-06-27T17:48:08.826Z,1.97
2018-06-27T17:50:37.205Z,4.03
2018-06-27T17:53:05.590Z,1.60
2018-06-27T17:55:33.958Z,3.37
2018-06-27T17:58:02.325Z,1.70
2018-06-27T18:00:30.897Z,3.10
2018-06-27T18:02:59.238Z,3.30
2018-06-27T18:05:27.589Z,1.70
2018-06-27T18:07:55.937Z,2.83
2018-06-27T18:10:24.274Z,1.60
2018-06-27T18:12:52.596Z,3.53
2018-06-27T18:15:20.945Z,2.90
2018-06-27T18:17:49.224Z,2.53
2018-06-27T18:20:17.566Z,2.20
2018-06-27T18:22:46.033Z,4.93
2018-06-27T18:25:14.470Z,1.80
2018-06-27T18:27:42.801Z,1.77
2018-06-27T18:30:11.117Z,1.93
2018-06-27T18:32:39.453Z,2.50
2018-06-27T18:35:08.998Z,2.87
2018-06-27T18:37:37.482Z,4.00
2018-06-27T18:40:06.409Z,2.57
2018-06-27T18:42:34.717Z,7.43
2018-06-27T18:45:02.833Z,4.50
2018-06-27T18:47:31.426Z,2.53
2018-06-27T18:49:59.790Z,2.53
2018-06-27T18:52:28.121Z,2.40
2018-06-27T18:54:56.706Z,2.47
2018-06-27T18:57:25.085Z,4.13
2018-06-27T18:59:53.183Z,3.77
2018-06-27T19:02:21.510Z,9.30
2018-06-27T19:04:49.845Z,2.20
2018-06-27T19:07:18.301Z,2.30
2018-06-27T19:09:46.705Z,4.63
2018-06-27T19:12:15.038Z,1.70
2018-06-27T19:14:43.406Z,4.73
2018-06-27T19:17:11.801Z,2.83
2018-06-27T19:19:40.115Z,5.37
2018-06-27T19:22:08.709Z,3.43
2018-06-27T19:24:37.021Z,3.17
2018-06-27T19:27:05.408Z,4.73
2018-06-27T19:29:33.745Z,3.67
2018-06-27T19:32:02.242Z,2.50
2018-06-27T19:34:30.608Z,3.37
2018-06-27T19:36:58.977Z,5.87
2018-06-27T19:39:37.463Z,2.23
2018-06-27T19:41:55.679Z,3.03
2018-06-27T19:44:23.727Z,6.30
2018-06-27T19:46:52.122Z,2.33
2018-06-27T19:49:20.609Z,3.93
2018-06-27T19:51:49.098Z,3.23
2018-06-27T19:54:16.966Z,1.90
2018-06-27T19:56:45.848Z,4.83
2018-06-27T19:59:14.201Z,3.40
2018-06-27T20:01:42.553Z,1.90
2018-06-27T20:04:10.924Z,3.93
2018-06-27T20:06:39.317Z,2.60
2018-06-27T20:09:08.842Z,2.30
2018-06-27T20:11:37.217Z,1.87
2018-06-27T20:14:05.649Z,2.37
2018-06-27T20:16:34.129Z,2.57
2018-06-27T20:19:02.223Z,7.60
2018-06-27T20:21:30.583Z,3.93
2018-06-27T20:23:58.974Z,4.73
2018-06-27T20:26:27.321Z,3.93
2018-06-27T20:28:55.670Z,3.40
2018-06-27T20:31:24.065Z,2.77
2018-06-27T20:33:52.446Z,3.03
2018-06-27T20:36:20.822Z,2.37
2018-06-27T20:38:49.329Z,3.43
2018-06-27T20:41:17.757Z,4.37
2018-06-27T20:43:46.153Z,2.83
2018-06-27T20:46:14.529Z,2.57
2018-06-27T20:48:42.997Z,2.77
2018-06-27T20:51:11.342Z,3.90
2018-06-27T20:53:39.682Z,5.77
2018-06-27T20:56:08.025Z,3.00
2018-06-27T20:58:36.552Z,3.40
2018-06-27T21:01:04.975Z,5.43
2018-06-27T21:03:33.310Z,4.30
2018-06-27T21:06:01.747Z,3.23
2018-06-27T21:08:32.812Z,3.23
2018-06-27T21:11:01.211Z,2.87
2018-06-27T21:13:30.945Z,3.27
2018-06-27T21:15:59.311Z,6.03
2018-06-27T21:18:27.695Z,6.43
2018-06-27T21:20:56.161Z,3.13
2018-06-27T21:23:24.241Z,4.80
2018-06-27T21:25:52.798Z,4.27
2018-06-27T21:28:21.158Z,5.90
2018-06-27T21:30:49.802Z,5.10
2018-06-27T21:33:18.141Z,6.47
2018-06-27T21:35:46.530Z,3.00
2018-06-27T21:38:14.914Z,3.47
2018-06-27T21:40:43.277Z,4.37
2018-06-27T21:43:11.649Z,5.83
2018-06-27T21:45:39.978Z,3.13
2018-06-27T21:48:08.340Z,3.37
2018-06-27T21:50:37.047Z,3.53
2018-06-27T21:53:05.853Z,4.93
2018-06-27T21:55:34.158Z,3.80
2018-06-27T21:58:02.507Z,3.63
2018-06-27T22:00:32.595Z,3.13
2018-06-27T22:03:01.705Z,5.87
2018-06-27T22:05:30.070Z,3.13
2018-06-27T22:07:58.602Z,3.53
2018-06-27T22:10:27.093Z,3.33
2018-06-27T22:12:55.522Z,4.83
2018-06-27T22:15:23.926Z,4.07
2018-06-27T22:17:52.281Z,3.80
2018-06-27T22:20:20.649Z,3.67
2018-06-27T22:22:48.969Z,5.40
2018-06-27T22:25:17.365Z,6.10
2018-06-27T22:27:45.721Z,5.60
2018-06-27T22:30:14.051Z,4.50
2018-06-27T22:32:42.426Z,5.57
2018-06-27T22:35:11.319Z,3.83
2018-06-27T22:37:39.713Z,5.80
2018-06-27T22:40:08.053Z,3.47
2018-06-27T22:42:36.177Z,5.60
2018-06-27T22:45:04.961Z,3.20
2018-06-27T22:47:34.294Z,3.10
2018-06-27T22:50:02.688Z,7.50
2018-06-27T22:52:31.129Z,3.10
2018-06-27T22:54:59.502Z,6.33
2018-06-27T22:57:27.938Z,3.23
2018-06-27T22:59:56.290Z,7.57
2018-06-27T23:02:24.661Z,6.40
2018-06-27T23:04:53.005Z,4.40
2018-06-27T23:07:21.404Z,4.50
2018-06-27T23:09:49.783Z,5.90
2018-06-27T23:12:18.413Z,2.90
2018-06-27T23:14:46.484Z,2.93
2018-06-27T23:17:14.937Z,6.20
2018-06-27T23:19:43.265Z,5.27
2018-06-27T23:22:22.884Z,3.37
2018-06-27T23:24:51.232Z,3.97
2018-06-27T23:27:19.593Z,2.63
2018-06-27T23:29:47.927Z,2.90
2018-06-27T23:32:16.385Z,3.10
2018-06-27T23:34:44.783Z,2.60
2018-06-27T23:37:13.181Z,3.43
2018-06-27T23:39:41.509Z,4.23
2018-06-27T23:42:10.388Z,6.20
2018-06-27T23:44:38.729Z,2.70
2018-06-27T23:47:07.061Z,12.30
2018-06-27T23:49:35.423Z,4.60
2018-06-27T23:52:03.823Z,3.77
2018-06-27T23:54:32.245Z,3.30
2018-06-27T23:57:00.565Z,5.23
2018-06-27T23:59:28.956Z,3.20
